sensor_id;sensor_type;location;lat;lon;timestamp;temperature;humidity
12588;DHT22;6359;51.450;7.346;2023-06-10T00:00:27;16.80;99.90
12588;DHT22;6359;51.450;7.346;2023-06-10T00:02:53;16.80;99.90
12588;DHT22;6359;51.450;7.346;2023-06-10T00:05:22;16.70;99.90
12588;DHT22;6359;51.450;7.346;2023-06-10T00:07:49;16.60;99.90
12588;DHT22;6359;51.450;7.346;2023-06-10T00:10:16;16.50;99.90
12588;DHT22;6359;51.450;7.346;2023-06-10T00:12:43;16.50;99.90
12588;DHT22;6359;51.450;7.346;2023-06-10T00:15:10;16.50;99.90
12588;DHT22;6359;51.450;7.346;2023-06-10T00:17:37;16.50;99.90
12588;DHT22;6359;51.450;7.346;2023-06-10T00:20:06;16.40;99.90
12588;DHT22;6359;51.450;7.346;2023-06-10T00:22:35;16.30;99.90
12588;DHT22;6359;51.450;7.346;2023-06-10T00:25:03;16.30;99.90
12588;DHT22;6359;51.450;7.346;2023-06-10T00:27:31;16.30;99.90
12588;DHT22;6359;51.450;7.346;2023-06-10T00:30:01;16.20;99.90
12588;DHT22;6359;51.450;7.346;2023-06-10T00:32:29;16.20;99.90
12588;DHT22;6359;51.450;7.346;2023-06-10T00:34:56;16.20;99.90
12588;DHT22;6359;51.450;7.346;2023-06-10T00:37:23;16.20;99.90
12588;DHT22;6359;51.450;7.346;2023-06-10T00:39:51;16.30;99.90
12588;DHT22;6359;51.450;7.346;2023-06-10T00:42:19;16.30;99.90
12588;DHT22;6359;51.450;7.346;2023-06-10T00:44:48;16.20;99.90
12588;DHT22;6359;51.450;7.346;2023-06-10T00:47:17;16.20;99.90
12588;DHT22;6359;51.450;7.346;2023-06-10T00:49:44;16.20;99.90
12588;DHT22;6359;51.450;7.346;2023-06-10T00:52:12;16.20;99.90
12588;DHT22;6359;51.450;7.346;2023-06-10T00:54:40;16.20;99.90
12588;DHT22;6359;51.450;7.346;2023-06-10T00:57:08;16.30;99.90
12588;DHT22;6359;51.450;7.346;2023-06-10T00:59:36;16.40;99.90
12588;DHT22;6359;51.450;7.346;2023-06-10T01:02:03;16.40;99.90
12588;DHT22;6359;51.450;7.346;2023-06-10T01:04:30;16.40;99.90
12588;DHT22;6359;51.450;7.346;2023-06-10T01:07:08;16.50;99.90
12588;DHT22;6359;51.450;7.346;2023-06-10T01:09:41;16.50;99.90
12588;DHT22;6359;51.450;7.346;2023-06-10T01:12:15;16.40;99.90
12588;DHT22;6359;51.450;7.346;2023-06-10T01:14:43;16.30;99.90
12588;DHT22;6359;51.450;7.346;2023-06-10T01:17:12;16.20;99.90
12588;DHT22;6359;51.450;7.346;2023-06-10T01:19:42;16.20;99.90
12588;DHT22;6359;51.450;7.346;2023-06-10T01:22:10;16.20;99.90
12588;DHT22;6359;51.450;7.346;2023-06-10T01:24:41;16.50;99.90
12588;DHT22;6359;51.450;7.346;2023-06-10T01:27:15;16.60;99.90
12588;DHT22;6359;51.450;7.346;2023-06-10T01:29:45;16.60;99.90
12588;DHT22;6359;51.450;7.346;2023-06-10T01:32:17;16.60;99.90
12588;DHT22;6359;51.450;7.346;2023-06-10T01:34:45;16.50;99.90
12588;DHT22;6359;51.450;7.346;2023-06-10T01:37:18;16.40;99.90
12588;DHT22;6359;51.450;7.346;2023-06-10T01:39:46;16.30;99.90
12588;DHT22;6359;51.450;7.346;2023-06-10T01:42:14;16.20;99.90
12588;DHT22;6359;51.450;7.346;2023-06-10T01:44:41;16.10;99.90
12588;DHT22;6359;51.450;7.346;2023-06-10T01:47:08;16.10;99.90
12588;DHT22;6359;51.450;7.346;2023-06-10T01:49:35;16.00;99.90
12588;DHT22;6359;51.450;7.346;2023-06-10T01:52:03;16.00;99.90
12588;DHT22;6359;51.450;7.346;2023-06-10T01:54:31;15.90;99.90
12588;DHT22;6359;51.450;7.346;2023-06-10T01:57:00;15.90;99.90
12588;DHT22;6359;51.450;7.346;2023-06-10T01:59:27;15.80;99.90
12588;DHT22;6359;51.450;7.346;2023-06-10T02:01:54;15.80;99.90
12588;DHT22;6359;51.450;7.346;2023-06-10T02:04:21;15.70;99.90
12588;DHT22;6359;51.450;7.346;2023-06-10T02:06:47;15.60;99.90
12588;DHT22;6359;51.450;7.346;2023-06-10T02:09:16;15.60;99.90
12588;DHT22;6359;51.450;7.346;2023-06-10T02:11:45;15.40;99.90
12588;DHT22;6359;51.450;7.346;2023-06-10T02:14:12;15.40;99.90
12588;DHT22;6359;51.450;7.346;2023-06-10T02:16:38;15.30;99.90
12588;DHT22;6359;51.450;7.346;2023-06-10T02:19:06;15.30;99.90
12588;DHT22;6359;51.450;7.346;2023-06-10T02:21:33;15.20;99.90
12588;DHT22;6359;51.450;7.346;2023-06-10T02:24:00;15.20;99.90
12588;DHT22;6359;51.450;7.346;2023-06-10T02:26:27;15.10;99.90
12588;DHT22;6359;51.450;7.346;2023-06-10T02:28:56;15.20;99.90
12588;DHT22;6359;51.450;7.346;2023-06-10T02:31:23;15.20;99.90
12588;DHT22;6359;51.450;7.346;2023-06-10T02:33:51;15.10;99.90
12588;DHT22;6359;51.450;7.346;2023-06-10T02:36:18;15.10;99.90
12588;DHT22;6359;51.450;7.346;2023-06-10T02:38:47;15.00;99.90
12588;DHT22;6359;51.450;7.346;2023-06-10T02:41:13;14.90;99.90
12588;DHT22;6359;51.450;7.346;2023-06-10T02:43:40;14.80;99.90
12588;DHT22;6359;51.450;7.346;2023-06-10T02:46:09;14.70;99.90
12588;DHT22;6359;51.450;7.346;2023-06-10T02:48:41;14.60;99.90
12588;DHT22;6359;51.450;7.346;2023-06-10T02:51:08;14.70;99.90
12588;DHT22;6359;51.450;7.346;2023-06-10T02:53:35;14.60;99.90
12588;DHT22;6359;51.450;7.346;2023-06-10T02:56:02;14.60;99.90
12588;DHT22;6359;51.450;7.346;2023-06-10T02:58:29;14.60;99.90
12588;DHT22;6359;51.450;7.346;2023-06-10T03:00:56;14.60;99.90
12588;DHT22;6359;51.450;7.346;2023-06-10T03:03:25;14.50;99.90
12588;DHT22;6359;51.450;7.346;2023-06-10T03:05:53;14.60;99.90
12588;DHT22;6359;51.450;7.346;2023-06-10T03:08:20;14.50;99.90
12588;DHT22;6359;51.450;7.346;2023-06-10T03:10:47;14.50;99.90
12588;DHT22;6359;51.450;7.346;2023-06-10T03:13:14;14.60;99.90
12588;DHT22;6359;51.450;7.346;2023-06-10T03:15:41;14.60;99.90
12588;DHT22;6359;51.450;7.346;2023-06-10T03:18:10;14.60;99.90
12588;DHT22;6359;51.450;7.346;2023-06-10T03:20:39;14.60;99.90
12588;DHT22;6359;51.450;7.346;2023-06-10T03:23:06;14.50;99.90
12588;DHT22;6359;51.450;7.346;2023-06-10T03:25:33;14.50;99.90
12588;DHT22;6359;51.450;7.346;2023-06-10T03:28:00;14.50;99.90
12588;DHT22;6359;51.450;7.346;2023-06-10T03:30:27;14.50;99.90
12588;DHT22;6359;51.450;7.346;2023-06-10T03:32:54;14.50;99.90
12588;DHT22;6359;51.450;7.346;2023-06-10T03:35:21;14.40;99.90
12588;DHT22;6359;51.450;7.346;2023-06-10T03:37:49;14.40;99.90
12588;DHT22;6359;51.450;7.346;2023-06-10T03:40:16;14.40;99.90
12588;DHT22;6359;51.450;7.346;2023-06-10T03:42:43;14.40;99.90
12588;DHT22;6359;51.450;7.346;2023-06-10T03:45:10;14.30;99.90
12588;DHT22;6359;51.450;7.346;2023-06-10T03:47:38;14.30;99.90
12588;DHT22;6359;51.450;7.346;2023-06-10T03:50:07;14.40;99.90
12588;DHT22;6359;51.450;7.346;2023-06-10T03:52:34;14.40;99.90
12588;DHT22;6359;51.450;7.346;2023-06-10T03:55:04;14.40;99.90
12588;DHT22;6359;51.450;7.346;2023-06-10T03:57:31;14.50;99.90
12588;DHT22;6359;51.450;7.346;2023-06-10T03:59:58;14.50;99.90
12588;DHT22;6359;51.450;7.346;2023-06-10T04:02:25;14.60;99.90
12588;DHT22;6359;51.450;7.346;2023-06-10T04:04:52;14.60;99.90
12588;DHT22;6359;51.450;7.346;2023-06-10T04:07:19;14.70;99.90
12588;DHT22;6359;51.450;7.346;2023-06-10T04:09:46;14.70;99.90
12588;DHT22;6359;51.450;7.346;2023-06-10T04:12:14;14.80;99.90
12588;DHT22;6359;51.450;7.346;2023-06-10T04:14:42;14.80;99.90
12588;DHT22;6359;51.450;7.346;2023-06-10T04:17:09;14.90;99.90
12588;DHT22;6359;51.450;7.346;2023-06-10T04:19:36;14.90;99.90
12588;DHT22;6359;51.450;7.346;2023-06-10T04:22:03;15.10;99.90
12588;DHT22;6359;51.450;7.346;2023-06-10T04:24:30;15.20;99.90
12588;DHT22;6359;51.450;7.346;2023-06-10T04:26:57;15.50;99.90
12588;DHT22;6359;51.450;7.346;2023-06-10T04:29:26;15.60;99.90
12588;DHT22;6359;51.450;7.346;2023-06-10T04:31:52;15.70;99.90
12588;DHT22;6359;51.450;7.346;2023-06-10T04:34:19;15.80;99.90
12588;DHT22;6359;51.450;7.346;2023-06-10T04:36:46;15.90;99.90
12588;DHT22;6359;51.450;7.346;2023-06-10T04:39:13;16.00;99.90
12588;DHT22;6359;51.450;7.346;2023-06-10T04:41:42;16.20;99.90
12588;DHT22;6359;51.450;7.346;2023-06-10T04:44:09;16.30;99.90
12588;DHT22;6359;51.450;7.346;2023-06-10T04:46:37;16.40;99.90
12588;DHT22;6359;51.450;7.346;2023-06-10T04:49:04;16.50;99.90
12588;DHT22;6359;51.450;7.346;2023-06-10T04:51:31;16.60;99.90
12588;DHT22;6359;51.450;7.346;2023-06-10T04:53:58;16.70;99.90
12588;DHT22;6359;51.450;7.346;2023-06-10T04:56:28;16.80;99.90
12588;DHT22;6359;51.450;7.346;2023-06-10T04:58:55;16.80;99.90
12588;DHT22;6359;51.450;7.346;2023-06-10T05:01:22;16.90;99.90
12588;DHT22;6359;51.450;7.346;2023-06-10T05:03:50;16.90;99.90
12588;DHT22;6359;51.450;7.346;2023-06-10T05:06:17;17.00;99.90
12588;DHT22;6359;51.450;7.346;2023-06-10T05:08:44;17.20;99.90
12588;DHT22;6359;51.450;7.346;2023-06-10T05:11:11;17.30;99.90
12588;DHT22;6359;51.450;7.346;2023-06-10T05:13:38;17.80;99.90
12588;DHT22;6359;51.450;7.346;2023-06-10T05:16:06;18.40;99.90
12588;DHT22;6359;51.450;7.346;2023-06-10T05:18:33;18.90;99.90
12588;DHT22;6359;51.450;7.346;2023-06-10T05:21:02;19.20;99.90
12588;DHT22;6359;51.450;7.346;2023-06-10T05:23:29;19.50;99.90
12588;DHT22;6359;51.450;7.346;2023-06-10T05:25:56;20.50;99.90
12588;DHT22;6359;51.450;7.346;2023-06-10T05:28:23;21.90;99.90
12588;DHT22;6359;51.450;7.346;2023-06-10T05:30:51;23.40;99.90
12588;DHT22;6359;51.450;7.346;2023-06-10T05:33:18;24.40;99.90
12588;DHT22;6359;51.450;7.346;2023-06-10T05:35:45;25.40;99.90
12588;DHT22;6359;51.450;7.346;2023-06-10T05:38:13;26.20;99.90
12588;DHT22;6359;51.450;7.346;2023-06-10T05:40:40;27.00;99.90
12588;DHT22;6359;51.450;7.346;2023-06-10T05:43:07;27.80;99.90
12588;DHT22;6359;51.450;7.346;2023-06-10T05:45:35;27.70;99.90
12588;DHT22;6359;51.450;7.346;2023-06-10T05:48:02;27.80;99.90
12588;DHT22;6359;51.450;7.346;2023-06-10T05:50:29;28.70;99.90
12588;DHT22;6359;51.450;7.346;2023-06-10T05:52:55;29.10;99.90
12588;DHT22;6359;51.450;7.346;2023-06-10T05:55:24;28.70;99.90
12588;DHT22;6359;51.450;7.346;2023-06-10T05:57:58;29.30;99.90
12588;DHT22;6359;51.450;7.346;2023-06-10T06:00:26;29.60;99.90
12588;DHT22;6359;51.450;7.346;2023-06-10T06:02:53;30.40;99.90
12588;DHT22;6359;51.450;7.346;2023-06-10T06:05:21;30.80;99.90
12588;DHT22;6359;51.450;7.346;2023-06-10T06:07:47;31.10;99.90
12588;DHT22;6359;51.450;7.346;2023-06-10T06:10:16;30.80;99.90
12588;DHT22;6359;51.450;7.346;2023-06-10T06:12:44;31.40;99.90
12588;DHT22;6359;51.450;7.346;2023-06-10T06:15:11;31.50;99.90
12588;DHT22;6359;51.450;7.346;2023-06-10T06:17:38;31.40;99.90
12588;DHT22;6359;51.450;7.346;2023-06-10T06:20:06;31.30;99.90
12588;DHT22;6359;51.450;7.346;2023-06-10T06:22:33;31.10;99.90
12588;DHT22;6359;51.450;7.346;2023-06-10T06:25:00;31.10;99.90
12588;DHT22;6359;51.450;7.346;2023-06-10T06:27:28;31.70;99.90
12588;DHT22;6359;51.450;7.346;2023-06-10T06:29:56;32.00;99.90
12588;DHT22;6359;51.450;7.346;2023-06-10T06:32:24;31.70;99.90
12588;DHT22;6359;51.450;7.346;2023-06-10T06:34:53;31.60;99.90
12588;DHT22;6359;51.450;7.346;2023-06-10T06:37:21;32.60;99.90
12588;DHT22;6359;51.450;7.346;2023-06-10T06:39:48;32.40;99.90
12588;DHT22;6359;51.450;7.346;2023-06-10T06:42:15;33.10;99.90
12588;DHT22;6359;51.450;7.346;2023-06-10T06:44:42;33.60;99.90
12588;DHT22;6359;51.450;7.346;2023-06-10T06:47:10;33.20;99.90
12588;DHT22;6359;51.450;7.346;2023-06-10T06:49:37;33.40;99.90
12588;DHT22;6359;51.450;7.346;2023-06-10T06:52:04;33.40;99.90
12588;DHT22;6359;51.450;7.346;2023-06-10T06:54:31;33.70;99.90
12588;DHT22;6359;51.450;7.346;2023-06-10T06:56:58;34.60;99.90
12588;DHT22;6359;51.450;7.346;2023-06-10T06:59:25;35.10;99.90
12588;DHT22;6359;51.450;7.346;2023-06-10T07:01:52;35.80;99.90
12588;DHT22;6359;51.450;7.346;2023-06-10T07:04:21;35.10;99.90
12588;DHT22;6359;51.450;7.346;2023-06-10T07:06:49;34.50;99.90
12588;DHT22;6359;51.450;7.346;2023-06-10T07:09:15;34.30;99.90
12588;DHT22;6359;51.450;7.346;2023-06-10T07:11:42;35.00;99.90
12588;DHT22;6359;51.450;7.346;2023-06-10T07:14:09;34.70;99.90
12588;DHT22;6359;51.450;7.346;2023-06-10T07:16:36;34.30;99.90
12588;DHT22;6359;51.450;7.346;2023-06-10T07:19:03;34.10;99.90
12588;DHT22;6359;51.450;7.346;2023-06-10T07:21:31;35.10;99.90
12588;DHT22;6359;51.450;7.346;2023-06-10T07:23:59;35.10;99.90
12588;DHT22;6359;51.450;7.346;2023-06-10T07:26:26;35.30;99.90
12588;DHT22;6359;51.450;7.346;2023-06-10T07:28:53;35.00;99.90
12588;DHT22;6359;51.450;7.346;2023-06-10T07:31:20;35.00;99.90
12588;DHT22;6359;51.450;7.346;2023-06-10T07:33:47;35.10;99.90
12588;DHT22;6359;51.450;7.346;2023-06-10T07:36:14;35.10;99.90
12588;DHT22;6359;51.450;7.346;2023-06-10T07:38:42;35.80;99.90
12588;DHT22;6359;51.450;7.346;2023-06-10T07:41:09;35.60;99.90
12588;DHT22;6359;51.450;7.346;2023-06-10T07:43:36;35.40;99.90
12588;DHT22;6359;51.450;7.346;2023-06-10T07:46:03;35.50;99.90
12588;DHT22;6359;51.450;7.346;2023-06-10T07:48:30;35.60;99.90
12588;DHT22;6359;51.450;7.346;2023-06-10T07:50:57;35.50;99.90
12588;DHT22;6359;51.450;7.346;2023-06-10T07:53:25;36.60;99.90
12588;DHT22;6359;51.450;7.346;2023-06-10T07:55:56;36.30;99.90
12588;DHT22;6359;51.450;7.346;2023-06-10T07:58:23;35.90;99.90
12588;DHT22;6359;51.450;7.346;2023-06-10T08:00:50;36.90;99.90
12588;DHT22;6359;51.450;7.346;2023-06-10T08:03:16;36.80;99.90
12588;DHT22;6359;51.450;7.346;2023-06-10T08:05:43;36.40;99.90
12588;DHT22;6359;51.450;7.346;2023-06-10T08:08:10;36.80;99.90
12588;DHT22;6359;51.450;7.346;2023-06-10T08:10:37;36.10;99.90
12588;DHT22;6359;51.450;7.346;2023-06-10T08:13:05;35.80;99.90
12588;DHT22;6359;51.450;7.346;2023-06-10T08:15:35;35.60;99.90
12588;DHT22;6359;51.450;7.346;2023-06-10T08:18:02;35.80;99.90
12588;DHT22;6359;51.450;7.346;2023-06-10T08:20:29;36.00;99.90
12588;DHT22;6359;51.450;7.346;2023-06-10T08:22:56;36.60;99.90
12588;DHT22;6359;51.450;7.346;2023-06-10T08:25:22;36.50;99.90
12588;DHT22;6359;51.450;7.346;2023-06-10T08:27:49;37.20;99.90
12588;DHT22;6359;51.450;7.346;2023-06-10T08:30:19;37.00;99.90
12588;DHT22;6359;51.450;7.346;2023-06-10T08:32:45;37.60;99.90
12588;DHT22;6359;51.450;7.346;2023-06-10T08:35:12;38.00;99.90
12588;DHT22;6359;51.450;7.346;2023-06-10T08:37:39;37.80;99.90
12588;DHT22;6359;51.450;7.346;2023-06-10T08:40:08;37.70;99.90
12588;DHT22;6359;51.450;7.346;2023-06-10T08:42:40;38.20;99.90
12588;DHT22;6359;51.450;7.346;2023-06-10T08:45:14;37.70;99.90
12588;DHT22;6359;51.450;7.346;2023-06-10T08:47:45;35.60;99.90
12588;DHT22;6359;51.450;7.346;2023-06-10T08:50:12;36.00;99.90
12588;DHT22;6359;51.450;7.346;2023-06-10T08:52:43;36.70;99.90
12588;DHT22;6359;51.450;7.346;2023-06-10T08:55:15;37.50;99.90
12588;DHT22;6359;51.450;7.346;2023-06-10T08:57:45;37.40;99.90
12588;DHT22;6359;51.450;7.346;2023-06-10T09:00:14;37.90;99.90
12588;DHT22;6359;51.450;7.346;2023-06-10T09:02:44;37.90;99.90
12588;DHT22;6359;51.450;7.346;2023-06-10T09:05:12;38.10;99.90
12588;DHT22;6359;51.450;7.346;2023-06-10T09:07:40;36.60;99.90
12588;DHT22;6359;51.450;7.346;2023-06-10T09:10:08;37.40;99.90
12588;DHT22;6359;51.450;7.346;2023-06-10T09:12:35;37.30;99.90
12588;DHT22;6359;51.450;7.346;2023-06-10T09:15:04;37.20;99.90
12588;DHT22;6359;51.450;7.346;2023-06-10T09:17:31;37.50;99.90
12588;DHT22;6359;51.450;7.346;2023-06-10T09:20:01;37.90;99.90
12588;DHT22;6359;51.450;7.346;2023-06-10T09:22:28;37.30;99.90
12588;DHT22;6359;51.450;7.346;2023-06-10T09:25:02;36.20;99.90
12588;DHT22;6359;51.450;7.346;2023-06-10T09:27:30;37.00;99.90
12588;DHT22;6359;51.450;7.346;2023-06-10T09:29:58;36.90;99.90
12588;DHT22;6359;51.450;7.346;2023-06-10T09:32:25;37.10;99.90
12588;DHT22;6359;51.450;7.346;2023-06-10T09:34:53;37.50;99.90
12588;DHT22;6359;51.450;7.346;2023-06-10T09:37:23;38.00;99.90
12588;DHT22;6359;51.450;7.346;2023-06-10T09:40:03;38.10;99.90
12588;DHT22;6359;51.450;7.346;2023-06-10T09:42:33;38.10;99.90
12588;DHT22;6359;51.450;7.346;2023-06-10T09:45:01;37.20;99.90
12588;DHT22;6359;51.450;7.346;2023-06-10T09:47:28;37.20;99.90
12588;DHT22;6359;51.450;7.346;2023-06-10T09:49:55;36.60;99.90
12588;DHT22;6359;51.450;7.346;2023-06-10T09:52:23;36.30;99.90
12588;DHT22;6359;51.450;7.346;2023-06-10T09:54:51;36.40;99.90
12588;DHT22;6359;51.450;7.346;2023-06-10T09:57:19;36.40;99.90
12588;DHT22;6359;51.450;7.346;2023-06-10T09:59:45;36.60;99.90
12588;DHT22;6359;51.450;7.346;2023-06-10T10:02:15;35.80;99.90
12588;DHT22;6359;51.450;7.346;2023-06-10T10:04:42;36.10;99.90
12588;DHT22;6359;51.450;7.346;2023-06-10T10:07:09;35.70;99.90
12588;DHT22;6359;51.450;7.346;2023-06-10T10:09:38;36.00;99.90
12588;DHT22;6359;51.450;7.346;2023-06-10T10:12:09;36.10;99.90
12588;DHT22;6359;51.450;7.346;2023-06-10T10:14:37;35.70;99.90
12588;DHT22;6359;51.450;7.346;2023-06-10T10:17:08;35.80;99.90
12588;DHT22;6359;51.450;7.346;2023-06-10T10:19:40;35.80;99.90
12588;DHT22;6359;51.450;7.346;2023-06-10T10:22:11;36.30;99.90
12588;DHT22;6359;51.450;7.346;2023-06-10T10:24:49;36.40;99.90
12588;DHT22;6359;51.450;7.346;2023-06-10T10:27:18;36.30;99.90
12588;DHT22;6359;51.450;7.346;2023-06-10T10:29:48;35.90;99.90
12588;DHT22;6359;51.450;7.346;2023-06-10T10:32:18;35.80;99.90
12588;DHT22;6359;51.450;7.346;2023-06-10T10:34:50;35.60;99.90
12588;DHT22;6359;51.450;7.346;2023-06-10T10:37:20;35.70;99.90
12588;DHT22;6359;51.450;7.346;2023-06-10T10:39:48;36.00;99.90
12588;DHT22;6359;51.450;7.346;2023-06-10T10:42:16;35.40;99.90
12588;DHT22;6359;51.450;7.346;2023-06-10T10:44:44;35.80;99.90
12588;DHT22;6359;51.450;7.346;2023-06-10T10:47:13;36.00;99.90
12588;DHT22;6359;51.450;7.346;2023-06-10T10:49:43;35.30;99.90
12588;DHT22;6359;51.450;7.346;2023-06-10T10:52:12;35.30;99.90
12588;DHT22;6359;51.450;7.346;2023-06-10T10:54:43;35.60;99.90
12588;DHT22;6359;51.450;7.346;2023-06-10T10:57:14;35.80;99.90
12588;DHT22;6359;51.450;7.346;2023-06-10T10:59:55;35.90;99.90
12588;DHT22;6359;51.450;7.346;2023-06-10T11:02:36;36.00;99.90
12588;DHT22;6359;51.450;7.346;2023-06-10T11:05:05;35.80;99.90
12588;DHT22;6359;51.450;7.346;2023-06-10T11:07:33;36.10;99.90
12588;DHT22;6359;51.450;7.346;2023-06-10T11:10:02;36.00;99.90
12588;DHT22;6359;51.450;7.346;2023-06-10T11:12:52;35.70;99.90
12588;DHT22;6359;51.450;7.346;2023-06-10T11:15:20;35.40;99.90
12588;DHT22;6359;51.450;7.346;2023-06-10T11:18:12;34.50;99.90
12588;DHT22;6359;51.450;7.346;2023-06-10T11:20:45;33.70;99.90
12588;DHT22;6359;51.450;7.346;2023-06-10T11:23:25;33.60;99.90
12588;DHT22;6359;51.450;7.346;2023-06-10T11:26:13;33.80;99.90
12588;DHT22;6359;51.450;7.346;2023-06-10T11:28:42;33.80;99.90
12588;DHT22;6359;51.450;7.346;2023-06-10T11:31:29;33.50;99.90
12588;DHT22;6359;51.450;7.346;2023-06-10T11:33:57;33.30;99.90
12588;DHT22;6359;51.450;7.346;2023-06-10T11:36:25;33.30;99.90
12588;DHT22;6359;51.450;7.346;2023-06-10T11:38:55;33.20;99.90
12588;DHT22;6359;51.450;7.346;2023-06-10T11:41:23;32.80;99.90
12588;DHT22;6359;51.450;7.346;2023-06-10T11:43:53;32.40;99.90
12588;DHT22;6359;51.450;7.346;2023-06-10T11:46:21;32.30;99.90
12588;DHT22;6359;51.450;7.346;2023-06-10T11:48:49;32.10;99.90
12588;DHT22;6359;51.450;7.346;2023-06-10T11:51:16;32.00;99.90
12588;DHT22;6359;51.450;7.346;2023-06-10T11:53:44;31.90;99.90
12588;DHT22;6359;51.450;7.346;2023-06-10T11:56:11;32.00;99.90
12588;DHT22;6359;51.450;7.346;2023-06-10T11:58:39;32.10;99.90
12588;DHT22;6359;51.450;7.346;2023-06-10T12:01:10;32.10;99.90
12588;DHT22;6359;51.450;7.346;2023-06-10T12:03:38;32.40;99.90
12588;DHT22;6359;51.450;7.346;2023-06-10T12:06:15;32.20;99.90
12588;DHT22;6359;51.450;7.346;2023-06-10T12:08:45;32.10;99.90
12588;DHT22;6359;51.450;7.346;2023-06-10T12:11:12;32.20;99.90
12588;DHT22;6359;51.450;7.346;2023-06-10T12:13:45;32.50;99.90
12588;DHT22;6359;51.450;7.346;2023-06-10T12:16:15;32.20;99.90
12588;DHT22;6359;51.450;7.346;2023-06-10T12:18:43;31.70;99.90
12588;DHT22;6359;51.450;7.346;2023-06-10T12:21:18;31.80;99.90
12588;DHT22;6359;51.450;7.346;2023-06-10T12:24:08;31.60;99.90
12588;DHT22;6359;51.450;7.346;2023-06-10T12:26:41;31.70;99.90
12588;DHT22;6359;51.450;7.346;2023-06-10T12:29:20;31.90;99.90
12588;DHT22;6359;51.450;7.346;2023-06-10T12:32:00;31.90;99.90
12588;DHT22;6359;51.450;7.346;2023-06-10T12:34:40;31.60;99.90
12588;DHT22;6359;51.450;7.346;2023-06-10T12:37:11;31.30;99.90
12588;DHT22;6359;51.450;7.346;2023-06-10T12:39:40;31.30;99.90
12588;DHT22;6359;51.450;7.346;2023-06-10T12:42:08;31.20;99.90
12588;DHT22;6359;51.450;7.346;2023-06-10T12:44:39;30.90;99.90
12588;DHT22;6359;51.450;7.346;2023-06-10T12:47:11;30.90;99.90
12588;DHT22;6359;51.450;7.346;2023-06-10T12:49:38;30.80;99.90
12588;DHT22;6359;51.450;7.346;2023-06-10T12:52:06;31.10;99.90
12588;DHT22;6359;51.450;7.346;2023-06-10T12:54:34;31.30;99.90
12588;DHT22;6359;51.450;7.346;2023-06-10T12:57:01;31.20;99.90
12588;DHT22;6359;51.450;7.346;2023-06-10T12:59:28;31.00;99.90
12588;DHT22;6359;51.450;7.346;2023-06-10T13:01:57;31.20;99.90
12588;DHT22;6359;51.450;7.346;2023-06-10T13:04:25;31.30;99.90
12588;DHT22;6359;51.450;7.346;2023-06-10T13:06:52;31.20;99.90
12588;DHT22;6359;51.450;7.346;2023-06-10T13:09:19;30.90;99.90
12588;DHT22;6359;51.450;7.346;2023-06-10T13:11:46;30.70;99.90
12588;DHT22;6359;51.450;7.346;2023-06-10T13:14:13;30.80;99.90
12588;DHT22;6359;51.450;7.346;2023-06-10T13:16:39;30.80;99.90
12588;DHT22;6359;51.450;7.346;2023-06-10T13:19:06;30.80;99.90
12588;DHT22;6359;51.450;7.346;2023-06-10T13:21:35;30.80;99.90
12588;DHT22;6359;51.450;7.346;2023-06-10T13:24:02;30.70;99.90
12588;DHT22;6359;51.450;7.346;2023-06-10T13:26:29;30.90;99.90
12588;DHT22;6359;51.450;7.346;2023-06-10T13:28:56;31.10;99.90
12588;DHT22;6359;51.450;7.346;2023-06-10T13:31:23;31.10;99.90
12588;DHT22;6359;51.450;7.346;2023-06-10T13:33:50;30.70;99.90
12588;DHT22;6359;51.450;7.346;2023-06-10T13:36:17;30.80;99.90
12588;DHT22;6359;51.450;7.346;2023-06-10T13:38:45;30.80;99.90
12588;DHT22;6359;51.450;7.346;2023-06-10T13:41:13;30.60;99.90
12588;DHT22;6359;51.450;7.346;2023-06-10T13:43:40;30.50;99.90
12588;DHT22;6359;51.450;7.346;2023-06-10T13:46:07;30.50;99.90
12588;DHT22;6359;51.450;7.346;2023-06-10T13:48:34;30.70;99.90
12588;DHT22;6359;51.450;7.346;2023-06-10T13:51:01;30.80;99.90
12588;DHT22;6359;51.450;7.346;2023-06-10T13:53:28;30.90;99.90
12588;DHT22;6359;51.450;7.346;2023-06-10T13:55:56;30.70;99.90
12588;DHT22;6359;51.450;7.346;2023-06-10T13:58:23;30.80;99.90
12588;DHT22;6359;51.450;7.346;2023-06-10T14:00:50;30.80;99.90
12588;DHT22;6359;51.450;7.346;2023-06-10T14:03:16;30.90;99.90
12588;DHT22;6359;51.450;7.346;2023-06-10T14:05:43;30.80;99.90
12588;DHT22;6359;51.450;7.346;2023-06-10T14:08:10;30.70;99.90
12588;DHT22;6359;51.450;7.346;2023-06-10T14:10:37;30.50;99.90
12588;DHT22;6359;51.450;7.346;2023-06-10T14:13:05;30.40;99.90
12588;DHT22;6359;51.450;7.346;2023-06-10T14:15:32;30.40;99.90
12588;DHT22;6359;51.450;7.346;2023-06-10T14:17:59;30.30;99.90
12588;DHT22;6359;51.450;7.346;2023-06-10T14:20:26;30.30;99.90
12588;DHT22;6359;51.450;7.346;2023-06-10T14:22:57;30.30;99.90
12588;DHT22;6359;51.450;7.346;2023-06-10T14:25:24;30.30;99.90
12588;DHT22;6359;51.450;7.346;2023-06-10T14:27:50;30.40;99.90
12588;DHT22;6359;51.450;7.346;2023-06-10T14:30:19;30.50;99.90
12588;DHT22;6359;51.450;7.346;2023-06-10T14:32:46;30.00;99.90
12588;DHT22;6359;51.450;7.346;2023-06-10T14:35:13;29.90;99.90
12588;DHT22;6359;51.450;7.346;2023-06-10T14:37:40;29.80;99.90
12588;DHT22;6359;51.450;7.346;2023-06-10T14:40:08;29.80;99.90
12588;DHT22;6359;51.450;7.346;2023-06-10T14:42:35;29.90;99.90
12588;DHT22;6359;51.450;7.346;2023-06-10T14:45:02;30.00;99.90
12588;DHT22;6359;51.450;7.346;2023-06-10T14:47:31;29.80;99.90
12588;DHT22;6359;51.450;7.346;2023-06-10T14:49:58;29.80;99.90
12588;DHT22;6359;51.450;7.346;2023-06-10T14:52:24;30.00;99.90
12588;DHT22;6359;51.450;7.346;2023-06-10T14:54:51;30.10;99.90
12588;DHT22;6359;51.450;7.346;2023-06-10T14:57:18;29.90;99.90
12588;DHT22;6359;51.450;7.346;2023-06-10T14:59:45;29.80;99.90
12588;DHT22;6359;51.450;7.346;2023-06-10T15:02:12;29.90;99.90
12588;DHT22;6359;51.450;7.346;2023-06-10T15:04:40;29.80;99.90
12588;DHT22;6359;51.450;7.346;2023-06-10T15:07:07;29.70;99.90
12588;DHT22;6359;51.450;7.346;2023-06-10T15:09:34;29.80;99.90
12588;DHT22;6359;51.450;7.346;2023-06-10T15:12:01;29.70;99.90
12588;DHT22;6359;51.450;7.346;2023-06-10T15:14:29;29.70;99.90
12588;DHT22;6359;51.450;7.346;2023-06-10T15:16:56;29.90;99.90
12588;DHT22;6359;51.450;7.346;2023-06-10T15:19:24;30.10;99.90
12588;DHT22;6359;51.450;7.346;2023-06-10T15:21:53;30.10;99.90
12588;DHT22;6359;51.450;7.346;2023-06-10T15:24:20;30.40;99.90
12588;DHT22;6359;51.450;7.346;2023-06-10T15:26:47;30.50;99.90
12588;DHT22;6359;51.450;7.346;2023-06-10T15:29:14;30.30;99.90
12588;DHT22;6359;51.450;7.346;2023-06-10T15:31:40;30.10;99.90
12588;DHT22;6359;51.450;7.346;2023-06-10T15:34:07;29.90;99.90
12588;DHT22;6359;51.450;7.346;2023-06-10T15:36:34;29.90;99.90
12588;DHT22;6359;51.450;7.346;2023-06-10T15:39:04;29.60;99.90
12588;DHT22;6359;51.450;7.346;2023-06-10T15:41:32;29.40;99.90
12588;DHT22;6359;51.450;7.346;2023-06-10T15:43:59;29.40;99.90
12588;DHT22;6359;51.450;7.346;2023-06-10T15:46:26;29.50;99.90
12588;DHT22;6359;51.450;7.346;2023-06-10T15:48:53;29.40;99.90
12588;DHT22;6359;51.450;7.346;2023-06-10T15:51:20;29.30;99.90